sensor_id;sensor_type;location;lat;lon;timestamp;P1;durP1;ratioP1;P2;durP2;ratioP2
17852;SDS011;9052;53.494;14.376;2024-03-08T00:02:13;36.83;;;13.03;;
17852;SDS011;9052;53.494;14.376;2024-03-08T00:04:40;35.10;;;14.20;;
17852;SDS011;9052;53.494;14.376;2024-03-08T00:07:08;27.07;;;14.73;;
17852;SDS011;9052;53.494;14.376;2024-03-08T00:09:35;30.80;;;13.97;;
17852;SDS011;9052;53.494;14.376;2024-03-08T00:12:02;34.60;;;14.07;;
17852;SDS011;9052;53.494;14.376;2024-03-08T00:14:29;42.87;;;16.00;;
17852;SDS011;9052;53.494;14.376;2024-03-08T00:16:56;50.33;;;15.93;;
17852;SDS011;9052;53.494;14.376;2024-03-08T00:19:23;61.43;;;16.00;;
17852;SDS011;9052;53.494;14.376;2024-03-08T00:21:50;30.73;;;13.70;;
17852;SDS011;9052;53.494;14.376;2024-03-08T00:24:19;41.83;;;14.73;;
17852;SDS011;9052;53.494;14.376;2024-03-08T00:26:49;78.23;;;20.70;;
17852;SDS011;9052;53.494;14.376;2024-03-08T00:29:16;71.93;;;21.47;;
17852;SDS011;9052;53.494;14.376;2024-03-08T00:31:43;60.87;;;19.33;;
17852;SDS011;9052;53.494;14.376;2024-03-08T00:34:10;100.23;;;23.50;;
17852;SDS011;9052;53.494;14.376;2024-03-08T00:36:37;68.63;;;18.80;;
17852;SDS011;9052;53.494;14.376;2024-03-08T00:39:04;57.00;;;20.20;;
17852;SDS011;9052;53.494;14.376;2024-03-08T00:41:33;66.50;;;21.20;;
17852;SDS011;9052;53.494;14.376;2024-03-08T00:44:00;85.57;;;22.23;;
17852;SDS011;9052;53.494;14.376;2024-03-08T00:46:28;47.97;;;16.63;;
17852;SDS011;9052;53.494;14.376;2024-03-08T00:48:56;48.33;;;16.90;;
17852;SDS011;9052;53.494;14.376;2024-03-08T00:51:23;55.17;;;15.67;;
17852;SDS011;9052;53.494;14.376;2024-03-08T00:53:50;43.73;;;15.30;;
17852;SDS011;9052;53.494;14.376;2024-03-08T00:56:17;31.33;;;14.40;;
17852;SDS011;9052;53.494;14.376;2024-03-08T00:58:45;39.23;;;13.47;;
17852;SDS011;9052;53.494;14.376;2024-03-08T01:01:12;42.47;;;12.40;;
17852;SDS011;9052;53.494;14.376;2024-03-08T01:03:42;23.20;;;10.73;;
17852;SDS011;9052;53.494;14.376;2024-03-08T01:06:09;21.07;;;9.13;;
17852;SDS011;9052;53.494;14.376;2024-03-08T01:08:37;13.53;;;7.40;;
17852;SDS011;9052;53.494;14.376;2024-03-08T01:11:17;19.23;;;6.40;;
17852;SDS011;9052;53.494;14.376;2024-03-08T01:13:46;12.83;;;9.10;;
17852;SDS011;9052;53.494;14.376;2024-03-08T01:16:14;12.30;;;8.47;;
17852;SDS011;9052;53.494;14.376;2024-03-08T01:18:42;14.93;;;8.77;;
17852;SDS011;9052;53.494;14.376;2024-03-08T01:21:15;21.53;;;8.30;;
17852;SDS011;9052;53.494;14.376;2024-03-08T01:23:48;38.63;;;12.00;;
17852;SDS011;9052;53.494;14.376;2024-03-08T01:26:15;12.23;;;8.07;;
17852;SDS011;9052;53.494;14.376;2024-03-08T01:28:42;11.97;;;8.20;;
17852;SDS011;9052;53.494;14.376;2024-03-08T01:31:10;19.80;;;10.10;;
17852;SDS011;9052;53.494;14.376;2024-03-08T01:33:37;21.97;;;9.43;;
17852;SDS011;9052;53.494;14.376;2024-03-08T01:36:05;25.43;;;9.50;;
17852;SDS011;9052;53.494;14.376;2024-03-08T01:38:32;10.37;;;8.70;;
17852;SDS011;9052;53.494;14.376;2024-03-08T01:40:59;9.23;;;7.67;;
17852;SDS011;9052;53.494;14.376;2024-03-08T01:43:27;18.47;;;10.13;;
17852;SDS011;9052;53.494;14.376;2024-03-08T01:45:55;12.33;;;8.00;;
17852;SDS011;9052;53.494;14.376;2024-03-08T01:48:23;27.77;;;8.23;;
17852;SDS011;9052;53.494;14.376;2024-03-08T01:50:50;15.63;;;8.33;;
17852;SDS011;9052;53.494;14.376;2024-03-08T01:53:19;19.57;;;9.20;;
17852;SDS011;9052;53.494;14.376;2024-03-08T01:55:49;20.40;;;10.20;;
17852;SDS011;9052;53.494;14.376;2024-03-08T01:58:16;20.90;;;10.77;;
17852;SDS011;9052;53.494;14.376;2024-03-08T02:00:45;19.17;;;11.20;;
17852;SDS011;9052;53.494;14.376;2024-03-08T02:03:14;13.97;;;9.13;;
17852;SDS011;9052;53.494;14.376;2024-03-08T02:05:42;15.13;;;10.00;;
17852;SDS011;9052;53.494;14.376;2024-03-08T02:08:09;11.90;;;8.27;;
17852;SDS011;9052;53.494;14.376;2024-03-08T02:10:39;20.10;;;9.90;;
17852;SDS011;9052;53.494;14.376;2024-03-08T02:13:07;32.37;;;10.53;;
17852;SDS011;9052;53.494;14.376;2024-03-08T02:15:53;10.53;;;7.50;;
17852;SDS011;9052;53.494;14.376;2024-03-08T02:18:20;14.60;;;8.27;;
17852;SDS011;9052;53.494;14.376;2024-03-08T02:20:49;24.27;;;11.07;;
17852;SDS011;9052;53.494;14.376;2024-03-08T02:23:16;18.40;;;9.20;;
17852;SDS011;9052;53.494;14.376;2024-03-08T02:25:43;24.07;;;10.17;;
17852;SDS011;9052;53.494;14.376;2024-03-08T02:28:10;27.33;;;11.77;;
17852;SDS011;9052;53.494;14.376;2024-03-08T02:30:38;23.53;;;10.87;;
17852;SDS011;9052;53.494;14.376;2024-03-08T02:33:05;32.07;;;9.97;;
17852;SDS011;9052;53.494;14.376;2024-03-08T02:35:34;16.90;;;9.47;;
17852;SDS011;9052;53.494;14.376;2024-03-08T02:38:03;16.00;;;9.27;;
17852;SDS011;9052;53.494;14.376;2024-03-08T02:40:30;15.73;;;10.00;;
17852;SDS011;9052;53.494;14.376;2024-03-08T02:42:57;34.90;;;9.17;;
17852;SDS011;9052;53.494;14.376;2024-03-08T02:45:24;18.43;;;9.13;;
17852;SDS011;9052;53.494;14.376;2024-03-08T02:47:51;23.20;;;9.50;;
17852;SDS011;9052;53.494;14.376;2024-03-08T02:50:18;18.27;;;9.80;;
17852;SDS011;9052;53.494;14.376;2024-03-08T02:52:45;13.03;;;9.90;;
17852;SDS011;9052;53.494;14.376;2024-03-08T02:55:14;14.77;;;8.43;;
17852;SDS011;9052;53.494;14.376;2024-03-08T02:57:41;37.83;;;10.23;;
17852;SDS011;9052;53.494;14.376;2024-03-08T03:00:09;22.63;;;9.60;;
17852;SDS011;9052;53.494;14.376;2024-03-08T03:02:38;18.57;;;9.87;;
17852;SDS011;9052;53.494;14.376;2024-03-08T03:05:05;26.90;;;9.77;;
17852;SDS011;9052;53.494;14.376;2024-03-08T03:07:34;17.20;;;10.03;;
17852;SDS011;9052;53.494;14.376;2024-03-08T03:10:02;23.10;;;10.50;;
17852;SDS011;9052;53.494;14.376;2024-03-08T03:12:31;20.00;;;10.43;;
17852;SDS011;9052;53.494;14.376;2024-03-08T03:14:59;15.73;;;7.87;;
17852;SDS011;9052;53.494;14.376;2024-03-08T03:17:26;16.03;;;9.30;;
17852;SDS011;9052;53.494;14.376;2024-03-08T03:19:54;27.03;;;10.13;;
17852;SDS011;9052;53.494;14.376;2024-03-08T03:22:21;16.33;;;8.07;;
17852;SDS011;9052;53.494;14.376;2024-03-08T03:24:48;15.63;;;7.43;;
17852;SDS011;9052;53.494;14.376;2024-03-08T03:27:16;21.73;;;10.17;;
17852;SDS011;9052;53.494;14.376;2024-03-08T03:29:46;20.63;;;7.60;;
17852;SDS011;9052;53.494;14.376;2024-03-08T03:32:14;13.13;;;7.03;;
17852;SDS011;9052;53.494;14.376;2024-03-08T03:34:43;16.33;;;9.67;;
17852;SDS011;9052;53.494;14.376;2024-03-08T03:37:10;16.63;;;9.70;;
17852;SDS011;9052;53.494;14.376;2024-03-08T03:39:37;28.23;;;10.00;;
17852;SDS011;9052;53.494;14.376;2024-03-08T03:42:13;24.57;;;9.50;;
17852;SDS011;9052;53.494;14.376;2024-03-08T03:44:41;24.70;;;10.17;;
17852;SDS011;9052;53.494;14.376;2024-03-08T03:47:10;21.30;;;10.17;;
17852;SDS011;9052;53.494;14.376;2024-03-08T03:49:37;19.63;;;9.13;;
17852;SDS011;9052;53.494;14.376;2024-03-08T03:52:04;18.93;;;10.60;;
17852;SDS011;9052;53.494;14.376;2024-03-08T03:54:31;22.40;;;9.83;;
17852;SDS011;9052;53.494;14.376;2024-03-08T03:56:58;24.40;;;10.00;;
17852;SDS011;9052;53.494;14.376;2024-03-08T03:59:25;22.27;;;8.80;;
17852;SDS011;9052;53.494;14.376;2024-03-08T04:01:52;40.23;;;9.90;;
17852;SDS011;9052;53.494;14.376;2024-03-08T04:04:21;14.73;;;8.97;;
17852;SDS011;9052;53.494;14.376;2024-03-08T04:06:49;15.97;;;8.30;;
17852;SDS011;9052;53.494;14.376;2024-03-08T04:09:17;22.10;;;10.97;;
17852;SDS011;9052;53.494;14.376;2024-03-08T04:11:44;31.30;;;10.50;;
17852;SDS011;9052;53.494;14.376;2024-03-08T04:14:11;12.53;;;8.43;;
17852;SDS011;9052;53.494;14.376;2024-03-08T04:16:38;23.10;;;8.20;;
17852;SDS011;9052;53.494;14.376;2024-03-08T04:19:05;13.20;;;7.77;;
17852;SDS011;9052;53.494;14.376;2024-03-08T04:21:35;20.13;;;10.00;;
17852;SDS011;9052;53.494;14.376;2024-03-08T04:24:01;19.83;;;8.40;;
17852;SDS011;9052;53.494;14.376;2024-03-08T04:26:29;18.90;;;9.57;;
17852;SDS011;9052;53.494;14.376;2024-03-08T04:28:55;13.77;;;9.10;;
17852;SDS011;9052;53.494;14.376;2024-03-08T04:31:22;31.37;;;11.50;;
17852;SDS011;9052;53.494;14.376;2024-03-08T04:33:51;32.57;;;9.97;;
17852;SDS011;9052;53.494;14.376;2024-03-08T04:36:18;15.63;;;9.07;;
17852;SDS011;9052;53.494;14.376;2024-03-08T04:38:47;13.23;;;8.47;;
17852;SDS011;9052;53.494;14.376;2024-03-08T04:41:14;13.57;;;8.83;;
17852;SDS011;9052;53.494;14.376;2024-03-08T04:43:41;14.37;;;8.83;;
17852;SDS011;9052;53.494;14.376;2024-03-08T04:46:08;19.77;;;9.87;;
17852;SDS011;9052;53.494;14.376;2024-03-08T04:48:35;17.17;;;9.30;;
17852;SDS011;9052;53.494;14.376;2024-03-08T04:51:02;13.70;;;9.27;;
17852;SDS011;9052;53.494;14.376;2024-03-08T04:53:30;11.07;;;7.40;;
17852;SDS011;9052;53.494;14.376;2024-03-08T04:56:00;10.80;;;7.97;;
17852;SDS011;9052;53.494;14.376;2024-03-08T04:58:31;13.87;;;8.00;;
17852;SDS011;9052;53.494;14.376;2024-03-08T05:00:58;23.23;;;7.10;;
17852;SDS011;9052;53.494;14.376;2024-03-08T05:03:25;10.87;;;9.10;;
17852;SDS011;9052;53.494;14.376;2024-03-08T05:05:52;23.10;;;11.83;;
17852;SDS011;9052;53.494;14.376;2024-03-08T05:08:19;13.20;;;7.00;;
17852;SDS011;9052;53.494;14.376;2024-03-08T05:10:46;16.57;;;6.47;;
17852;SDS011;9052;53.494;14.376;2024-03-08T05:13:15;19.80;;;8.60;;
17852;SDS011;9052;53.494;14.376;2024-03-08T05:15:44;11.50;;;8.60;;
17852;SDS011;9052;53.494;14.376;2024-03-08T05:18:10;13.47;;;8.47;;
17852;SDS011;9052;53.494;14.376;2024-03-08T05:20:39;16.47;;;8.33;;
17852;SDS011;9052;53.494;14.376;2024-03-08T05:23:07;17.20;;;7.53;;
17852;SDS011;9052;53.494;14.376;2024-03-08T05:25:34;9.60;;;6.93;;
17852;SDS011;9052;53.494;14.376;2024-03-08T05:28:01;9.67;;;7.87;;
17852;SDS011;9052;53.494;14.376;2024-03-08T05:30:30;18.63;;;8.80;;
17852;SDS011;9052;53.494;14.376;2024-03-08T05:32:57;18.77;;;10.10;;
17852;SDS011;9052;53.494;14.376;2024-03-08T05:35:24;14.77;;;9.07;;
17852;SDS011;9052;53.494;14.376;2024-03-08T05:37:51;16.77;;;8.93;;
17852;SDS011;9052;53.494;14.376;2024-03-08T05:40:18;14.20;;;9.30;;
17852;SDS011;9052;53.494;14.376;2024-03-08T05:42:45;18.43;;;9.83;;
17852;SDS011;9052;53.494;14.376;2024-03-08T05:45:12;15.63;;;7.77;;
17852;SDS011;9052;53.494;14.376;2024-03-08T05:47:41;19.90;;;7.90;;
17852;SDS011;9052;53.494;14.376;2024-03-08T05:50:08;16.37;;;9.00;;
17852;SDS011;9052;53.494;14.376;2024-03-08T05:52:36;15.20;;;8.10;;
17852;SDS011;9052;53.494;14.376;2024-03-08T05:55:04;25.53;;;10.57;;
17852;SDS011;9052;53.494;14.376;2024-03-08T05:57:33;13.60;;;8.90;;
17852;SDS011;9052;53.494;14.376;2024-03-08T06:00:03;17.27;;;9.47;;
17852;SDS011;9052;53.494;14.376;2024-03-08T06:02:30;7.40;;;6.60;;
17852;SDS011;9052;53.494;14.376;2024-03-08T06:04:59;12.23;;;7.63;;
17852;SDS011;9052;53.494;14.376;2024-03-08T06:07:27;15.90;;;9.93;;
17852;SDS011;9052;53.494;14.376;2024-03-08T06:09:55;12.33;;;9.20;;
17852;SDS011;9052;53.494;14.376;2024-03-08T06:12:25;14.93;;;9.03;;
17852;SDS011;9052;53.494;14.376;2024-03-08T06:14:54;11.27;;;8.27;;
17852;SDS011;9052;53.494;14.376;2024-03-08T06:17:21;12.97;;;8.50;;
17852;SDS011;9052;53.494;14.376;2024-03-08T06:19:50;15.73;;;10.43;;
17852;SDS011;9052;53.494;14.376;2024-03-08T06:22:20;39.90;;;12.40;;
17852;SDS011;9052;53.494;14.376;2024-03-08T06:24:47;18.27;;;11.80;;
17852;SDS011;9052;53.494;14.376;2024-03-08T06:27:14;16.30;;;12.10;;
17852;SDS011;9052;53.494;14.376;2024-03-08T06:29:42;16.90;;;13.20;;
17852;SDS011;9052;53.494;14.376;2024-03-08T06:32:09;19.47;;;12.83;;
17852;SDS011;9052;53.494;14.376;2024-03-08T06:34:40;32.40;;;11.90;;
17852;SDS011;9052;53.494;14.376;2024-03-08T06:37:07;25.97;;;15.17;;
17852;SDS011;9052;53.494;14.376;2024-03-08T06:39:35;23.03;;;15.50;;
17852;SDS011;9052;53.494;14.376;2024-03-08T06:42:02;25.83;;;14.87;;
17852;SDS011;9052;53.494;14.376;2024-03-08T06:44:30;21.93;;;13.77;;
17852;SDS011;9052;53.494;14.376;2024-03-08T06:46:57;33.20;;;16.53;;
17852;SDS011;9052;53.494;14.376;2024-03-08T06:49:25;21.43;;;13.10;;
17852;SDS011;9052;53.494;14.376;2024-03-08T06:51:52;25.30;;;14.93;;
17852;SDS011;9052;53.494;14.376;2024-03-08T06:54:19;30.40;;;15.27;;
17852;SDS011;9052;53.494;14.376;2024-03-08T06:56:48;33.60;;;12.93;;
17852;SDS011;9052;53.494;14.376;2024-03-08T06:59:15;29.83;;;13.50;;
17852;SDS011;9052;53.494;14.376;2024-03-08T07:01:43;19.27;;;13.20;;
17852;SDS011;9052;53.494;14.376;2024-03-08T07:04:14;30.83;;;15.80;;
17852;SDS011;9052;53.494;14.376;2024-03-08T07:06:41;97.30;;;16.00;;
17852;SDS011;9052;53.494;14.376;2024-03-08T07:09:08;25.00;;;15.53;;
17852;SDS011;9052;53.494;14.376;2024-03-08T07:11:35;45.13;;;17.13;;
17852;SDS011;9052;53.494;14.376;2024-03-08T07:14:03;37.60;;;15.17;;
17852;SDS011;9052;53.494;14.376;2024-03-08T07:16:31;32.30;;;16.53;;
17852;SDS011;9052;53.494;14.376;2024-03-08T07:18:59;43.97;;;18.47;;
17852;SDS011;9052;53.494;14.376;2024-03-08T07:21:26;41.33;;;19.30;;
17852;SDS011;9052;53.494;14.376;2024-03-08T07:23:53;38.30;;;18.37;;
17852;SDS011;9052;53.494;14.376;2024-03-08T07:26:34;31.03;;;18.70;;
17852;SDS011;9052;53.494;14.376;2024-03-08T07:29:03;34.50;;;20.00;;
17852;SDS011;9052;53.494;14.376;2024-03-08T07:31:30;28.27;;;19.13;;
17852;SDS011;9052;53.494;14.376;2024-03-08T07:34:09;39.70;;;20.77;;
17852;SDS011;9052;53.494;14.376;2024-03-08T07:36:36;34.10;;;20.00;;
17852;SDS011;9052;53.494;14.376;2024-03-08T07:39:03;41.00;;;21.80;;
17852;SDS011;9052;53.494;14.376;2024-03-08T07:41:34;40.30;;;22.70;;
17852;SDS011;9052;53.494;14.376;2024-03-08T07:44:03;49.97;;;21.77;;
17852;SDS011;9052;53.494;14.376;2024-03-08T07:46:30;44.00;;;21.87;;
17852;SDS011;9052;53.494;14.376;2024-03-08T07:49:03;26.93;;;19.43;;
17852;SDS011;9052;53.494;14.376;2024-03-08T07:51:31;33.47;;;21.77;;
17852;SDS011;9052;53.494;14.376;2024-03-08T07:53:59;36.77;;;20.17;;
17852;SDS011;9052;53.494;14.376;2024-03-08T07:56:26;44.07;;;24.53;;
17852;SDS011;9052;53.494;14.376;2024-03-08T07:58:54;34.53;;;19.33;;
17852;SDS011;9052;53.494;14.376;2024-03-08T08:01:22;41.20;;;23.17;;
17852;SDS011;9052;53.494;14.376;2024-03-08T08:03:49;45.83;;;21.47;;
17852;SDS011;9052;53.494;14.376;2024-03-08T08:06:16;43.97;;;21.83;;
17852;SDS011;9052;53.494;14.376;2024-03-08T08:08:43;36.53;;;24.30;;
17852;SDS011;9052;53.494;14.376;2024-03-08T08:11:10;33.57;;;23.20;;
17852;SDS011;9052;53.494;14.376;2024-03-08T08:13:37;40.23;;;21.50;;
17852;SDS011;9052;53.494;14.376;2024-03-08T08:16:04;32.67;;;21.30;;
17852;SDS011;9052;53.494;14.376;2024-03-08T08:18:34;39.00;;;21.77;;
17852;SDS011;9052;53.494;14.376;2024-03-08T08:21:01;36.77;;;20.83;;
17852;SDS011;9052;53.494;14.376;2024-03-08T08:23:29;36.10;;;20.60;;
17852;SDS011;9052;53.494;14.376;2024-03-08T08:25:56;33.17;;;19.27;;
17852;SDS011;9052;53.494;14.376;2024-03-08T08:28:24;32.93;;;18.60;;
17852;SDS011;9052;53.494;14.376;2024-03-08T08:30:51;36.47;;;19.03;;
17852;SDS011;9052;53.494;14.376;2024-03-08T08:33:19;31.90;;;18.40;;
17852;SDS011;9052;53.494;14.376;2024-03-08T08:35:47;30.37;;;16.67;;
17852;SDS011;9052;53.494;14.376;2024-03-08T08:38:18;35.90;;;15.50;;
17852;SDS011;9052;53.494;14.376;2024-03-08T08:40:45;39.53;;;17.10;;
17852;SDS011;9052;53.494;14.376;2024-03-08T08:43:12;21.30;;;14.33;;
17852;SDS011;9052;53.494;14.376;2024-03-08T08:45:39;17.13;;;12.93;;
17852;SDS011;9052;53.494;14.376;2024-03-08T08:48:08;32.97;;;15.60;;
17852;SDS011;9052;53.494;14.376;2024-03-08T08:50:35;28.90;;;16.57;;
17852;SDS011;9052;53.494;14.376;2024-03-08T08:53:04;28.73;;;15.57;;
17852;SDS011;9052;53.494;14.376;2024-03-08T08:55:32;33.53;;;14.70;;
17852;SDS011;9052;53.494;14.376;2024-03-08T08:58:01;24.97;;;13.90;;
17852;SDS011;9052;53.494;14.376;2024-03-08T09:00:29;26.63;;;14.60;;
17852;SDS011;9052;53.494;14.376;2024-03-08T09:02:58;17.80;;;11.90;;
17852;SDS011;9052;53.494;14.376;2024-03-08T09:05:25;22.47;;;11.60;;
17852;SDS011;9052;53.494;14.376;2024-03-08T09:07:52;28.43;;;16.67;;
17852;SDS011;9052;53.494;14.376;2024-03-08T09:10:20;18.63;;;13.67;;
17852;SDS011;9052;53.494;14.376;2024-03-08T09:12:48;24.93;;;11.80;;
17852;SDS011;9052;53.494;14.376;2024-03-08T09:15:15;21.40;;;12.73;;
17852;SDS011;9052;53.494;14.376;2024-03-08T09:17:43;20.47;;;10.60;;
17852;SDS011;9052;53.494;14.376;2024-03-08T09:20:11;25.67;;;10.20;;
17852;SDS011;9052;53.494;14.376;2024-03-08T09:22:40;19.30;;;10.30;;
17852;SDS011;9052;53.494;14.376;2024-03-08T09:25:08;17.43;;;11.97;;
17852;SDS011;9052;53.494;14.376;2024-03-08T09:27:36;17.33;;;11.77;;
17852;SDS011;9052;53.494;14.376;2024-03-08T09:30:05;17.40;;;11.43;;
17852;SDS011;9052;53.494;14.376;2024-03-08T09:32:33;17.17;;;11.70;;
17852;SDS011;9052;53.494;14.376;2024-03-08T09:35:00;14.80;;;12.47;;
17852;SDS011;9052;53.494;14.376;2024-03-08T09:37:32;20.03;;;11.13;;
17852;SDS011;9052;53.494;14.376;2024-03-08T09:39:59;17.93;;;13.17;;
17852;SDS011;9052;53.494;14.376;2024-03-08T09:42:29;23.53;;;12.43;;
17852;SDS011;9052;53.494;14.376;2024-03-08T09:44:59;22.20;;;12.37;;
17852;SDS011;9052;53.494;14.376;2024-03-08T09:47:26;23.83;;;14.10;;
17852;SDS011;9052;53.494;14.376;2024-03-08T09:49:59;24.93;;;15.60;;
17852;SDS011;9052;53.494;14.376;2024-03-08T09:52:29;20.23;;;14.03;;
17852;SDS011;9052;53.494;14.376;2024-03-08T09:54:58;20.87;;;13.03;;
17852;SDS011;9052;53.494;14.376;2024-03-08T09:57:25;22.90;;;14.33;;
17852;SDS011;9052;53.494;14.376;2024-03-08T09:59:52;17.73;;;11.93;;
17852;SDS011;9052;53.494;14.376;2024-03-08T10:02:21;21.57;;;13.10;;
17852;SDS011;9052;53.494;14.376;2024-03-08T10:04:48;19.00;;;13.40;;
17852;SDS011;9052;53.494;14.376;2024-03-08T10:07:15;18.63;;;13.13;;
17852;SDS011;9052;53.494;14.376;2024-03-08T10:09:42;16.37;;;11.43;;
17852;SDS011;9052;53.494;14.376;2024-03-08T10:12:15;23.43;;;15.17;;
17852;SDS011;9052;53.494;14.376;2024-03-08T10:14:42;24.57;;;12.10;;
17852;SDS011;9052;53.494;14.376;2024-03-08T10:17:09;19.77;;;13.57;;
17852;SDS011;9052;53.494;14.376;2024-03-08T10:19:38;23.73;;;14.03;;
17852;SDS011;9052;53.494;14.376;2024-03-08T10:22:05;24.57;;;13.40;;
17852;SDS011;9052;53.494;14.376;2024-03-08T10:24:32;18.67;;;12.53;;
17852;SDS011;9052;53.494;14.376;2024-03-08T10:27:00;18.90;;;11.30;;
17852;SDS011;9052;53.494;14.376;2024-03-08T10:29:30;18.70;;;12.63;;
17852;SDS011;9052;53.494;14.376;2024-03-08T10:31:57;17.83;;;11.57;;
17852;SDS011;9052;53.494;14.376;2024-03-08T10:34:25;21.80;;;11.40;;
17852;SDS011;9052;53.494;14.376;2024-03-08T10:36:53;17.70;;;10.27;;
17852;SDS011;9052;53.494;14.376;2024-03-08T10:39:28;18.83;;;11.53;;
17852;SDS011;9052;53.494;14.376;2024-03-08T10:41:58;17.60;;;11.30;;
17852;SDS011;9052;53.494;14.376;2024-03-08T10:47:15;18.43;;;11.83;;
17852;SDS011;9052;53.494;14.376;2024-03-08T10:49:50;28.73;;;12.30;;
17852;SDS011;9052;53.494;14.376;2024-03-08T10:52:20;21.83;;;13.53;;
17852;SDS011;9052;53.494;14.376;2024-03-08T10:54:48;19.23;;;10.77;;
17852;SDS011;9052;53.494;14.376;2024-03-08T10:57:17;28.90;;;10.80;;
17852;SDS011;9052;53.494;14.376;2024-03-08T10:59:49;19.80;;;11.90;;
17852;SDS011;9052;53.494;14.376;2024-03-08T11:02:17;15.90;;;10.73;;
17852;SDS011;9052;53.494;14.376;2024-03-08T11:04:46;18.53;;;11.37;;
17852;SDS011;9052;53.494;14.376;2024-03-08T11:07:14;17.20;;;10.87;;
17852;SDS011;9052;53.494;14.376;2024-03-08T11:09:44;22.63;;;11.90;;
17852;SDS011;9052;53.494;14.376;2024-03-08T11:12:19;15.70;;;10.33;;
17852;SDS011;9052;53.494;14.376;2024-03-08T11:14:52;21.63;;;12.50;;
17852;SDS011;9052;53.494;14.376;2024-03-08T11:17:21;15.77;;;11.33;;
17852;SDS011;9052;53.494;14.376;2024-03-08T11:19:48;19.53;;;12.30;;
17852;SDS011;9052;53.494;14.376;2024-03-08T11:22:20;17.90;;;11.53;;
17852;SDS011;9052;53.494;14.376;2024-03-08T11:24:51;21.60;;;12.57;;
17852;SDS011;9052;53.494;14.376;2024-03-08T11:27:18;18.63;;;11.87;;
17852;SDS011;9052;53.494;14.376;2024-03-08T11:29:58;15.53;;;11.33;;
17852;SDS011;9052;53.494;14.376;2024-03-08T11:32:33;24.50;;;11.20;;
17852;SDS011;9052;53.494;14.376;2024-03-08T11:35:02;16.17;;;11.00;;
17852;SDS011;9052;53.494;14.376;2024-03-08T11:37:34;16.50;;;10.70;;
17852;SDS011;9052;53.494;14.376;2024-03-08T11:40:08;20.50;;;11.00;;
17852;SDS011;9052;53.494;14.376;2024-03-08T11:42:39;18.13;;;10.67;;
17852;SDS011;9052;53.494;14.376;2024-03-08T11:45:08;16.90;;;10.33;;
17852;SDS011;9052;53.494;14.376;2024-03-08T11:47:36;17.90;;;9.80;;
17852;SDS011;9052;53.494;14.376;2024-03-08T11:50:05;18.30;;;10.80;;
17852;SDS011;9052;53.494;14.376;2024-03-08T11:52:36;17.50;;;9.77;;
17852;SDS011;9052;53.494;14.376;2024-03-08T11:55:05;13.87;;;10.23;;
17852;SDS011;9052;53.494;14.376;2024-03-08T11:57:37;17.07;;;11.03;;
17852;SDS011;9052;53.494;14.376;2024-03-08T12:00:05;15.47;;;9.60;;
17852;SDS011;9052;53.494;14.376;2024-03-08T12:02:33;11.33;;;9.67;;
17852;SDS011;9052;53.494;14.376;2024-03-08T12:05:03;19.07;;;11.10;;
17852;SDS011;9052;53.494;14.376;2024-03-08T12:07:34;14.83;;;10.13;;
17852;SDS011;9052;53.494;14.376;2024-03-08T12:10:16;17.67;;;10.43;;
17852;SDS011;9052;53.494;14.376;2024-03-08T12:12:44;14.10;;;9.87;;
17852;SDS011;9052;53.494;14.376;2024-03-08T12:15:12;16.53;;;9.20;;
17852;SDS011;9052;53.494;14.376;2024-03-08T12:17:39;17.00;;;9.60;;
17852;SDS011;9052;53.494;14.376;2024-03-08T12:20:18;14.37;;;10.20;;
17852;SDS011;9052;53.494;14.376;2024-03-08T12:22:47;10.47;;;8.27;;
17852;SDS011;9052;53.494;14.376;2024-03-08T12:25:16;11.57;;;8.27;;
17852;SDS011;9052;53.494;14.376;2024-03-08T12:27:44;11.23;;;7.20;;
17852;SDS011;9052;53.494;14.376;2024-03-08T12:30:21;11.43;;;8.10;;
17852;SDS011;9052;53.494;14.376;2024-03-08T12:32:50;11.13;;;9.57;;
17852;SDS011;9052;53.494;14.376;2024-03-08T12:35:19;15.00;;;8.70;;
17852;SDS011;9052;53.494;14.376;2024-03-08T12:37:48;10.20;;;9.10;;
17852;SDS011;9052;53.494;14.376;2024-03-08T12:40:18;14.37;;;10.30;;
17852;SDS011;9052;53.494;14.376;2024-03-08T12:42:46;12.50;;;9.03;;
17852;SDS011;9052;53.494;14.376;2024-03-08T12:45:14;12.77;;;8.77;;
17852;SDS011;9052;53.494;14.376;2024-03-08T12:47:41;21.13;;;9.53;;
17852;SDS011;9052;53.494;14.376;2024-03-08T12:50:09;22.70;;;12.63;;
17852;SDS011;9052;53.494;14.376;2024-03-08T12:52:37;16.50;;;10.43;;
17852;SDS011;9052;53.494;14.376;2024-03-08T12:55:04;16.97;;;10.27;;
17852;SDS011;9052;53.494;14.376;2024-03-08T12:57:35;12.70;;;10.13;;
17852;SDS011;9052;53.494;14.376;2024-03-08T13:00:03;15.70;;;11.83;;
17852;SDS011;9052;53.494;14.376;2024-03-08T13:02:38;15.13;;;9.60;;
17852;SDS011;9052;53.494;14.376;2024-03-08T13:05:05;19.70;;;11.23;;
17852;SDS011;9052;53.494;14.376;2024-03-08T13:07:34;18.20;;;11.27;;
17852;SDS011;9052;53.494;14.376;2024-03-08T13:10:04;18.47;;;12.70;;
17852;SDS011;9052;53.494;14.376;2024-03-08T13:12:32;14.27;;;9.90;;
17852;SDS011;9052;53.494;14.376;2024-03-08T13:15:04;13.87;;;10.50;;
17852;SDS011;9052;53.494;14.376;2024-03-08T13:17:33;14.90;;;9.50;;
17852;SDS011;9052;53.494;14.376;2024-03-08T13:20:00;14.37;;;10.10;;
17852;SDS011;9052;53.494;14.376;2024-03-08T13:22:31;19.40;;;10.10;;
17852;SDS011;9052;53.494;14.376;2024-03-08T13:24:58;20.10;;;10.37;;
17852;SDS011;9052;53.494;14.376;2024-03-08T13:27:26;20.20;;;10.30;;
17852;SDS011;9052;53.494;14.376;2024-03-08T13:29:54;10.53;;;8.00;;
17852;SDS011;9052;53.494;14.376;2024-03-08T13:32:22;16.40;;;9.40;;
17852;SDS011;9052;53.494;14.376;2024-03-08T13:34:50;11.07;;;8.00;;
17852;SDS011;9052;53.494;14.376;2024-03-08T13:37:17;10.17;;;8.00;;
17852;SDS011;9052;53.494;14.376;2024-03-08T13:39:44;12.30;;;8.70;;
17852;SDS011;9052;53.494;14.376;2024-03-08T13:42:12;9.63;;;7.27;;
17852;SDS011;9052;53.494;14.376;2024-03-08T13:44:44;12.00;;;5.93;;
17852;SDS011;9052;53.494;14.376;2024-03-08T13:47:12;9.50;;;5.83;;
17852;SDS011;9052;53.494;14.376;2024-03-08T13:49:41;12.47;;;6.93;;
17852;SDS011;9052;53.494;14.376;2024-03-08T13:52:08;13.30;;;7.23;;
17852;SDS011;9052;53.494;14.376;2024-03-08T13:54:37;8.50;;;6.93;;
17852;SDS011;9052;53.494;14.376;2024-03-08T13:57:05;10.90;;;8.33;;
17852;SDS011;9052;53.494;14.376;2024-03-08T13:59:32;9.47;;;7.53;;
17852;SDS011;9052;53.494;14.376;2024-03-08T14:02:00;8.03;;;6.10;;
17852;SDS011;9052;53.494;14.376;2024-03-08T14:04:27;10.90;;;7.20;;
17852;SDS011;9052;53.494;14.376;2024-03-08T14:06:56;10.40;;;6.83;;
17852;SDS011;9052;53.494;14.376;2024-03-08T14:09:28;11.00;;;7.10;;
17852;SDS011;9052;53.494;14.376;2024-03-08T14:11:56;10.00;;;7.43;;
17852;SDS011;9052;53.494;14.376;2024-03-08T14:14:24;13.43;;;8.10;;
17852;SDS011;9052;53.494;14.376;2024-03-08T14:16:51;12.27;;;6.23;;
17852;SDS011;9052;53.494;14.376;2024-03-08T14:19:23;11.73;;;6.20;;
17852;SDS011;9052;53.494;14.376;2024-03-08T14:21:50;23.80;;;7.90;;
17852;SDS011;9052;53.494;14.376;2024-03-08T14:24:20;7.37;;;6.37;;
17852;SDS011;9052;53.494;14.376;2024-03-08T14:26:47;12.03;;;7.30;;
17852;SDS011;9052;53.494;14.376;2024-03-08T14:29:15;11.70;;;8.20;;
17852;SDS011;9052;53.494;14.376;2024-03-08T14:31:43;16.33;;;8.83;;
17852;SDS011;9052;53.494;14.376;2024-03-08T14:34:10;9.57;;;7.07;;
17852;SDS011;9052;53.494;14.376;2024-03-08T14:36:39;9.83;;;7.47;;
17852;SDS011;9052;53.494;14.376;2024-03-08T14:39:06;10.83;;;7.30;;